Weerstation
Sluispark-LeuvenLeuven-Sluispark

Weerstation
Wilsele-PutkapelWilsele-Putkapel



Nabijgelegen vliegvelden - METAR rapporten

   
EBBR - Wilsele bij Leuven
Gewijzigd: 26-07-2021 06:50
Gedeeltelijk bewolkt    Wind: Zuiden 7.4 km/h
Gedeeltelijk bewolkt
Wind: Wind: Zuiden 7.4 km/h
Temperatuur: 16°C
Dauwpunt: 15°C
Vochtigheid: 94%
Barometer: 1009 hPa
Bewolking: Gedeeltelijk bewolkt
Zicht: meer dan 10 km
Bewolking: Gedeeltelijk bewolkt 365.8 m,
Gedeeltelijk bewolkt 1371.6 m
EBBR 260450Z 18004KT 9999 SCT012 SCT045 16/15 Q1009 TEMPO SCT008 BKN012
EBAW - Antwerp
Gewijzigd: 26-07-2021 07:20
Licht bewolkt    Wind: ZZO 5.6 km/h
Licht bewolkt
Wind: Wind: ZZO 5.6 km/h
Temperatuur: 17°C
Dauwpunt: 15°C
Vochtigheid: 88%
Barometer: 1009 hPa
Bewolking: Licht bewolkt
Zicht: meer dan 10 km
Bewolking: Licht bewolkt 243.8 m
EBAW 260520Z 16003KT 120V190 9999 FEW008 17/15 Q1009 NOSIG
EBLG - Li├Ęge
Gewijzigd: 26-07-2021 07:20
Grotendeels bewolkt    Wind: Zuiden 16.7 km/h
Grotendeels bewolkt
Wind: Wind: Zuiden 16.7 km/h
Temperatuur: 17°C
Dauwpunt: 15°C
Vochtigheid: 88%
Barometer: 1010 hPa
Bewolking: Grotendeels bewolkt
Zicht: meer dan 10 km
Bewolking: Grotendeels bewolkt 823 m
EBLG 260520Z 17009KT 150V210 9999 BKN027 17/15 Q1010 NOSIG
EBCV - Mons/Bergen
Gewijzigd: 26-07-2021 06:55
Bewolking    Wind: ZW 11.1 km/h
Bewolking
Wind: Wind: ZW 11.1 km/h
Temperatuur: 17°C
Dauwpunt: 16°C
Vochtigheid: 94%
Barometer: 1009 hPa
Bewolking: Bewolking
Bewolking: Bewolking 152.4 m
EBCV 260455Z AUTO 23006KT //// OVC005/// 17/16 Q1009 YLO
EHBK - Maastricht
Gewijzigd: 26-07-2021 07:25
Bewolking    Wind: ZZW 22.2 km/h
Bewolking
Wind: Wind: ZZW 22.2 km/h
Temperatuur: 17°C
Dauwpunt: 15°C
Vochtigheid: 88%
Barometer: 1010 hPa
Bewolking: Bewolking
Zicht: meer dan 10 km
Bewolking: Bewolking 457.2 m
EHBK 260525Z AUTO 21012KT 170V240 9999 OVC015 17/15 Q1010 NOSIG
ELLX - Luxemburg
Gewijzigd: 26-07-2021 07:20
Licht bewolkt    Wind: ZZO 9.3 km/h
Licht bewolkt
Wind: Wind: ZZO 9.3 km/h
Temperatuur: 15°C
Dauwpunt: 15°C
Vochtigheid: 100%
Barometer: 1012 hPa
Bewolking: Licht bewolkt
Zicht: 7 km
Bewolking: Licht bewolkt 30.5 m
ELLX 260520Z 16005KT 7000 FEW001 15/15 Q1012 TEMPO 4000 BR
EBOS - Oostende
Gewijzigd: 26-07-2021 07:20
Regenbuien, Regen, Grotendeels bewolkt    Wind: NW 11.1 km/h
Regenbuien, Regen, Grotendeels bewolkt
Wind: Wind: NW 11.1 km/h
Temperatuur: 18°C
Dauwpunt: 17°C
Vochtigheid: 94%
Barometer: 1009 hPa
Bewolking: Grotendeels bewolkt
Zicht: 4 km
Bewolking: Licht bewolkt 152.4 m,
Licht bewolkt 609.6 m,
Grotendeels bewolkt 1219.2 m
EBOS 260520Z 32006KT 3500 SHRA FEW005 FEW020CB BKN040 18/17 Q1009 RETS TEMPO 6000 NSW
  

Script ontwikkeld door  Saratoga-weather.org Aangepast voor de template door  Weerstation Leuven

U vindt ons ook hier:

UK Metoffice

WeatherCloud

European Weather Network

Weather Underground

Benelux Weather Network

AWEKAS

WeatherlinkIP

HAMweather, WeatherForYou, PWS Weather

Het Weer Aktueel

Apparatuur in gebruik:

Weer-station
Davis VP2 weatherstation

Weer-programma
Meteobridge

Weer-computer
D-Link DIR-505

Davis VP2 weatherstation

Meteobridge

D-Link DIR-505